LUK weather

Cincinnati Municipal Airport Lunken Field
Cincinnati, Ohio, United States

Public forecast

Using degrees Fahrenheit for public forecast. Weather courtesy of forecast.io.

Current aviation weather report (METAR) for Cincinnati Municipal Airport Lunken Field

Retrieved 2019/10/21 02:53 UTC (37 minutes ago):

KLUK 210253Z 00000KT 10SM BKN075 16/14 A2997 RMK AO2 SLP148 T01610139 51018

Aviation forecast (TAF) for Cincinnati Municipal Airport Lunken Field

Retrieved 2019-10-21 00:42 UTC (3 hours ago):

TAF KLUK 202341Z 2100/2124 17004KT P6SM BKN200 FM211300 15010KT P6SM BKN080 FM211500 15011G21KT P6SM VCSH OVC050 FM212100 18016G26KT 5SM -SHRA OVC028